Centenary, Indiana
Current Conditions -  °F | °C
As of 8:55 AM on Friday 24 Oct 2014 (Local Time) from KPRG Reporting Station
Overcast Overcast  
Wind Chill: 50°   Ceiling: 2200
Heat Index: 50°   Visibility: 10mi
Dew Point: 48°   Wind: 0mph
Humidity: 93%   Direction: NA
Pressure: 30.1"   Gusts: NA
Location:  39.6513°N, 87.4607°W
Report Text: KPRG 241255Z AUTO 00000KT 10SM OVC022 10/09 A3010 RMK AO2 T00980087
Loading
Personal Weather Stations






























Interactive Weather Map
Tropical Storm Tracking
New forecast layout! Learn more

10-Day Weather Forecast

Advertisements
Track Severe Weather on mobile